createdAt,value
2018-02-05T00:01:02.680Z,1.20
2018-02-05T00:03:29.561Z,1.20
2018-02-05T00:05:56.378Z,1.30
2018-02-05T00:08:23.262Z,1.20
2018-02-05T00:10:50.180Z,1.30
2018-02-05T00:13:17.051Z,1.30
2018-02-05T00:15:44.619Z,1.30
2018-02-05T00:18:11.469Z,1.30
2018-02-05T00:20:39.103Z,1.40
2018-02-05T00:23:06.833Z,1.40
2018-02-05T00:25:33.680Z,1.40
2018-02-05T00:28:00.498Z,1.40
2018-02-05T00:30:27.372Z,1.50
2018-02-05T00:32:54.245Z,1.40
2018-02-05T00:35:21.811Z,1.50
2018-02-05T00:37:49.389Z,1.50
2018-02-05T00:40:16.245Z,1.50
2018-02-05T00:42:43.367Z,1.50
2018-02-05T00:45:10.982Z,1.60
2018-02-05T00:47:37.821Z,1.60
2018-02-05T00:50:04.727Z,1.60
2018-02-05T00:52:32.830Z,1.60
2018-02-05T00:54:59.694Z,1.50
2018-02-05T00:57:27.293Z,1.60
2018-02-05T00:59:54.865Z,1.60
2018-02-05T01:02:21.806Z,1.60
2018-02-05T01:04:48.638Z,1.60
2018-02-05T01:07:16.229Z,1.50
2018-02-05T01:09:43.145Z,1.50
2018-02-05T01:12:10.777Z,1.50
2018-02-05T01:14:37.629Z,1.50
2018-02-05T01:17:04.466Z,1.50
2018-02-05T01:19:31.394Z,1.60
2018-02-05T01:21:58.287Z,1.60
2018-02-05T01:24:25.845Z,1.70
2018-02-05T01:26:52.702Z,1.70
2018-02-05T01:29:19.537Z,1.60
2018-02-05T01:31:47.152Z,1.70
2018-02-05T01:34:21.035Z,1.70
2018-02-05T01:36:47.873Z,1.70
2018-02-05T01:39:14.718Z,1.60
2018-02-05T01:41:41.569Z,1.60
2018-02-05T01:44:08.398Z,1.70
2018-02-05T01:46:35.301Z,1.70
2018-02-05T01:49:02.902Z,1.80
2018-02-05T01:51:29.798Z,1.70
2018-02-05T01:53:56.668Z,1.80
2018-02-05T01:56:23.541Z,1.90
2018-02-05T01:58:50.390Z,1.90
2018-02-05T02:01:17.253Z,1.90
2018-02-05T02:03:44.097Z,1.90
2018-02-05T02:06:10.951Z,2.00
2018-02-05T02:08:37.815Z,2.00
2018-02-05T02:11:05.451Z,1.90
2018-02-05T02:13:32.286Z,1.80
2018-02-05T02:15:59.137Z,1.80
2018-02-05T02:18:25.995Z,1.90
2018-02-05T02:20:52.925Z,1.90
2018-02-05T02:23:19.864Z,2.00
2018-02-05T02:25:46.802Z,2.00
2018-02-05T02:28:13.758Z,2.00
2018-02-05T02:30:40.600Z,2.10
2018-02-05T02:33:07.445Z,2.00
2018-02-05T02:35:34.305Z,1.90
2018-02-05T02:38:01.883Z,1.70
2018-02-05T02:40:28.746Z,1.70
2018-02-05T02:42:55.628Z,1.80
2018-02-05T02:45:22.491Z,1.80
2018-02-05T02:47:50.110Z,1.80
2018-02-05T02:50:16.961Z,1.80
2018-02-05T02:52:43.862Z,1.90
2018-02-05T02:55:10.699Z,1.80
2018-02-05T02:57:37.569Z,1.90
2018-02-05T03:00:04.466Z,2.00
2018-02-05T03:02:32.147Z,1.80
2018-02-05T03:04:59.014Z,1.80
2018-02-05T03:07:25.917Z,1.80
2018-02-05T03:09:52.740Z,1.70
2018-02-05T03:12:19.588Z,1.70
2018-02-05T03:14:46.450Z,1.70
2018-02-05T03:17:14.039Z,1.80
2018-02-05T03:19:40.885Z,1.80
2018-02-05T03:22:08.486Z,1.70
2018-02-05T03:24:35.349Z,1.70
2018-02-05T03:27:02.214Z,1.80
2018-02-05T03:29:29.045Z,1.90
2018-02-05T03:31:56.727Z,2.10
2018-02-05T03:34:23.541Z,2.00
2018-02-05T03:36:51.148Z,2.10
2018-02-05T03:39:17.989Z,2.10
2018-02-05T03:41:44.897Z,2.10
2018-02-05T03:44:11.711Z,2.10
2018-02-05T03:46:38.561Z,2.10
2018-02-05T03:49:06.205Z,2.00
2018-02-05T03:51:34.073Z,2.00
2018-02-05T03:54:01.039Z,2.00
2018-02-05T03:56:27.874Z,2.00
2018-02-05T03:58:54.753Z,2.10
2018-02-05T04:01:21.750Z,2.10
2018-02-05T04:03:48.601Z,2.10
2018-02-05T04:06:15.448Z,2.10
2018-02-05T04:08:42.298Z,2.10
2018-02-05T04:11:09.242Z,2.10
2018-02-05T04:13:36.078Z,2.00
2018-02-05T04:16:03.025Z,2.00
2018-02-05T04:18:29.842Z,2.00
2018-02-05T04:20:56.709Z,2.00
2018-02-05T04:23:23.686Z,2.10
2018-02-05T04:25:51.266Z,2.10
2018-02-05T04:28:18.830Z,2.00
2018-02-05T04:30:45.749Z,2.00
2018-02-05T04:33:12.578Z,1.90
2018-02-05T04:35:39.409Z,1.90
2018-02-05T04:38:07.010Z,1.90
2018-02-05T04:40:34.554Z,1.80
2018-02-05T04:43:02.191Z,1.70
2018-02-05T04:45:29.813Z,1.60
2018-02-05T04:47:56.637Z,1.60
2018-02-05T04:50:23.498Z,1.50
2018-02-05T04:52:50.378Z,1.40
2018-02-05T04:55:17.220Z,1.40
2018-02-05T04:57:44.095Z,1.30
2018-02-05T05:00:11.686Z,1.30
2018-02-05T05:02:38.581Z,1.30
2018-02-05T05:05:06.170Z,1.30
2018-02-05T05:07:33.034Z,1.30
2018-02-05T05:09:59.874Z,1.30
2018-02-05T05:12:26.740Z,1.30
2018-02-05T05:14:53.590Z,1.30
2018-02-05T05:17:20.425Z,1.30
2018-02-05T05:19:47.311Z,1.20
2018-02-05T05:22:14.944Z,1.10
2018-02-05T05:24:41.789Z,1.10
2018-02-05T05:27:08.641Z,1.10
2018-02-05T05:29:35.489Z,1.00
2018-02-05T05:32:03.162Z,1.00
2018-02-05T05:34:29.989Z,1.00
2018-02-05T05:36:56.833Z,1.10
2018-02-05T05:39:23.664Z,1.00
2018-02-05T05:41:50.633Z,1.00
2018-02-05T05:44:17.722Z,1.00
2018-02-05T05:46:44.693Z,1.00
2018-02-05T05:49:11.722Z,1.00
2018-02-05T05:51:39.434Z,1.00
2018-02-05T05:54:06.293Z,1.00
2018-02-05T05:56:33.145Z,1.00
2018-02-05T05:59:00.761Z,1.10
2018-02-05T06:01:29.266Z,1.10
2018-02-05T06:03:56.147Z,1.10
2018-02-05T06:06:23.025Z,1.10
2018-02-05T06:08:49.913Z,1.00
2018-02-05T06:11:16.810Z,0.90
2018-02-05T06:13:43.652Z,1.00
2018-02-05T06:16:10.517Z,1.10
2018-02-05T06:18:38.105Z,1.10
2018-02-05T06:21:05.030Z,1.10
2018-02-05T06:23:32.606Z,1.20
2018-02-05T06:25:59.475Z,1.20
2018-02-05T06:28:27.122Z,1.30
2018-02-05T06:30:54.109Z,1.30
2018-02-05T06:33:21.014Z,1.40
2018-02-05T06:35:47.875Z,1.40
2018-02-05T06:38:14.742Z,1.40
2018-02-05T06:40:41.590Z,1.40
2018-02-05T06:43:08.430Z,1.40
2018-02-05T06:45:35.307Z,1.40
2018-02-05T06:48:02.134Z,1.50
2018-02-05T06:50:41.886Z,1.40
2018-02-05T06:53:20.989Z,1.40
2018-02-05T06:55:47.825Z,1.50
2018-02-05T06:58:14.714Z,1.60
2018-02-05T07:00:42.321Z,1.70
2018-02-05T07:03:09.157Z,1.70
2018-02-05T07:05:36.022Z,1.80
2018-02-05T07:08:02.921Z,1.80
2018-02-05T07:10:32.164Z,1.80
2018-02-05T07:13:00.994Z,1.80
2018-02-05T07:15:30.713Z,1.80
2018-02-05T07:17:59.575Z,1.80
2018-02-05T07:20:28.969Z,1.70
2018-02-05T07:22:58.472Z,1.70
2018-02-05T07:25:27.679Z,1.70
2018-02-05T07:27:55.479Z,1.80
2018-02-05T07:30:24.843Z,1.90
2018-02-05T07:32:52.365Z,1.90
2018-02-05T07:35:21.281Z,2.00
2018-02-05T07:37:48.316Z,2.00
2018-02-05T07:40:17.702Z,2.10
2018-02-05T07:42:45.065Z,2.00
2018-02-05T07:45:13.165Z,2.20
2018-02-05T07:47:41.975Z,2.20
2018-02-05T07:50:09.561Z,2.10
2018-02-05T07:52:38.053Z,2.10
2018-02-05T07:55:07.765Z,2.30
2018-02-05T07:57:34.626Z,2.30
2018-02-05T08:00:01.687Z,2.40
2018-02-05T08:02:31.434Z,2.40
2018-02-05T08:05:00.337Z,2.50
2018-02-05T08:07:28.045Z,2.50
2018-02-05T08:09:54.890Z,2.60
2018-02-05T08:12:22.456Z,2.60
2018-02-05T08:14:49.329Z,2.60
2018-02-05T08:17:16.897Z,2.60
2018-02-05T08:19:44.478Z,2.70
2018-02-05T08:22:11.334Z,2.70
2018-02-05T08:24:38.205Z,2.70
2018-02-05T08:27:05.005Z,2.70
2018-02-05T08:29:32.545Z,3.00
2018-02-05T08:31:59.418Z,3.00
2018-02-05T08:34:26.285Z,3.00
2018-02-05T08:36:53.122Z,2.90
2018-02-05T08:39:19.973Z,2.90
2018-02-05T08:41:47.934Z,2.80
2018-02-05T08:44:14.774Z,2.90
2018-02-05T08:46:41.589Z,3.20
2018-02-05T08:49:08.446Z,3.40
2018-02-05T08:51:35.302Z,3.40
2018-02-05T08:54:02.189Z,3.40
2018-02-05T08:56:29.022Z,3.30
2018-02-05T08:58:56.639Z,3.20
2018-02-05T09:01:23.485Z,3.10
2018-02-05T09:03:50.329Z,3.00
2018-02-05T09:06:17.203Z,3.10
2018-02-05T09:08:44.397Z,3.10
2018-02-05T09:11:12.316Z,3.00
2018-02-05T09:13:39.133Z,3.00
2018-02-05T09:16:06.011Z,3.10
2018-02-05T09:18:32.841Z,2.90
2018-02-05T09:20:59.701Z,3.10
2018-02-05T09:23:26.525Z,3.30
2018-02-05T09:25:53.412Z,3.40
2018-02-05T09:28:20.288Z,3.60
2018-02-05T09:30:47.109Z,3.70
2018-02-05T09:33:14.005Z,3.80
2018-02-05T09:35:40.804Z,4.00
2018-02-05T09:38:07.665Z,4.10
2018-02-05T09:40:34.485Z,4.10
2018-02-05T09:43:01.374Z,4.50
2018-02-05T09:45:28.261Z,4.50
2018-02-05T09:47:55.098Z,4.50
2018-02-05T09:50:21.930Z,4.60
2018-02-05T09:52:48.806Z,4.70
2018-02-05T09:55:15.662Z,4.70
2018-02-05T09:57:42.494Z,4.90
2018-02-05T10:00:09.348Z,5.00
2018-02-05T10:02:36.178Z,5.20
2018-02-05T10:05:03.045Z,5.50
2018-02-05T10:07:29.907Z,5.40
2018-02-05T10:09:57.497Z,5.30
2018-02-05T10:12:24.376Z,5.30
2018-02-05T10:14:51.238Z,5.20
2018-02-05T10:17:18.086Z,5.30
2018-02-05T10:19:44.950Z,5.10
2018-02-05T10:22:12.542Z,4.90
2018-02-05T10:24:39.426Z,4.90
2018-02-05T10:27:06.338Z,4.70
2018-02-05T10:29:33.411Z,4.70
2018-02-05T10:32:01.044Z,4.90
2018-02-05T10:34:27.926Z,5.00
2018-02-05T10:36:55.604Z,4.80
2018-02-05T10:39:23.182Z,5.00
2018-02-05T10:41:50.075Z,5.00
2018-02-05T10:44:17.065Z,5.10
2018-02-05T10:46:43.928Z,5.00
2018-02-05T10:49:10.827Z,5.40
2018-02-05T10:51:37.713Z,5.70
2018-02-05T10:54:04.598Z,5.70
2018-02-05T10:56:32.245Z,5.60
2018-02-05T10:58:59.150Z,5.60
2018-02-05T11:01:26.977Z,5.40
2018-02-05T11:03:54.620Z,6.00
2018-02-05T11:06:21.470Z,6.00
2018-02-05T11:08:48.412Z,6.60
2018-02-05T11:11:15.263Z,7.00
2018-02-05T11:13:42.901Z,8.30
2018-02-05T11:16:09.777Z,8.30
2018-02-05T11:18:36.679Z,9.30
2018-02-05T11:21:03.554Z,10.00
2018-02-05T11:23:30.477Z,10.30
2018-02-05T11:25:57.339Z,10.60
2018-02-05T11:28:24.228Z,11.50
2018-02-05T11:30:51.170Z,13.10
2018-02-05T11:33:18.790Z,13.50
2018-02-05T11:35:45.662Z,13.40
2018-02-05T11:38:12.501Z,13.80
2018-02-05T11:40:40.262Z,11.00
2018-02-05T11:43:07.918Z,9.90
2018-02-05T11:45:35.510Z,9.20
2018-02-05T11:48:02.446Z,9.20
2018-02-05T11:50:29.381Z,9.00
2018-02-05T11:52:56.315Z,9.50
2018-02-05T11:55:23.197Z,11.00
2018-02-05T11:57:50.075Z,11.30
2018-02-05T12:00:16.964Z,10.40
2018-02-05T12:02:43.855Z,9.80
2018-02-05T12:05:10.734Z,10.50
2018-02-05T12:07:37.626Z,10.50
2018-02-05T12:10:04.544Z,9.80
2018-02-05T12:12:31.440Z,9.20
2018-02-05T12:14:58.313Z,8.90
2018-02-05T12:17:25.226Z,8.40
2018-02-05T12:19:52.940Z,7.90
2018-02-05T12:22:19.837Z,7.80
2018-02-05T12:24:47.490Z,7.70
2018-02-05T12:27:14.412Z,7.70
2018-02-05T12:29:41.298Z,7.50
2018-02-05T12:32:09.109Z,7.10
2018-02-05T12:34:36.777Z,7.00
2018-02-05T12:37:03.650Z,6.90
2018-02-05T12:39:30.690Z,6.90
2018-02-05T12:41:57.559Z,6.40
2018-02-05T12:44:25.231Z,6.20
2018-02-05T12:46:52.882Z,6.20
2018-02-05T12:49:20.581Z,6.10
2018-02-05T12:51:47.422Z,6.10
2018-02-05T12:54:15.039Z,5.70
2018-02-05T12:56:41.941Z,5.70
2018-02-05T12:59:08.812Z,5.80
2018-02-05T13:04:47.091Z,5.80
2018-02-05T13:07:13.958Z,5.80
2018-02-05T13:09:40.869Z,5.70
2018-02-05T13:12:08.463Z,5.60
2018-02-05T13:14:35.316Z,5.70
2018-02-05T13:17:02.205Z,5.70
2018-02-05T13:19:29.135Z,5.70
2018-02-05T13:21:55.994Z,5.60
2018-02-05T13:24:22.829Z,5.60
2018-02-05T13:26:49.667Z,5.30
2018-02-05T13:29:16.550Z,5.20
2018-02-05T13:31:43.449Z,4.90
2018-02-05T13:34:10.325Z,5.00
2018-02-05T13:36:37.191Z,5.00
2018-02-05T13:39:04.131Z,5.10
2018-02-05T13:41:30.998Z,5.20
2018-02-05T13:43:57.874Z,5.10
2018-02-05T13:46:24.790Z,5.00
2018-02-05T13:48:51.763Z,4.80
2018-02-05T13:51:18.710Z,4.90
2018-02-05T13:53:45.596Z,4.90
2018-02-05T13:56:12.515Z,4.90
2018-02-05T13:58:39.386Z,4.90
2018-02-05T14:01:06.308Z,4.70
2018-02-05T14:03:33.594Z,4.60
2018-02-05T14:06:00.527Z,4.50
2018-02-05T14:08:27.425Z,4.50
2018-02-05T14:10:54.354Z,4.50
2018-02-05T14:13:21.272Z,4.40
2018-02-05T14:15:48.189Z,4.40
2018-02-05T14:18:15.036Z,4.40
2018-02-05T14:20:42.091Z,4.40
2018-02-05T14:23:08.963Z,4.40
2018-02-05T14:25:35.815Z,4.10
2018-02-05T14:28:03.538Z,4.30
2018-02-05T14:30:31.134Z,4.20
2018-02-05T14:32:57.986Z,4.20
2018-02-05T14:35:24.843Z,4.20
2018-02-05T14:37:51.633Z,4.30
2018-02-05T14:40:18.442Z,4.40
2018-02-05T14:42:46.058Z,4.20
2018-02-05T14:45:12.918Z,4.20
2018-02-05T14:47:39.770Z,4.40
2018-02-05T14:50:06.577Z,4.50
2018-02-05T14:52:33.422Z,4.50
2018-02-05T14:55:00.239Z,4.60
2018-02-05T14:57:27.795Z,4.60
2018-02-05T14:59:55.506Z,4.60
2018-02-05T15:02:22.362Z,4.60
2018-02-05T15:04:50.098Z,4.60
2018-02-05T15:07:16.949Z,4.50
2018-02-05T15:09:43.760Z,4.60
2018-02-05T15:12:10.658Z,4.60
2018-02-05T15:14:37.541Z,4.60
2018-02-05T15:17:04.418Z,4.60
2018-02-05T15:19:31.242Z,4.40
2018-02-05T15:21:58.158Z,4.40
2018-02-05T15:24:25.764Z,4.20
2018-02-05T15:26:52.614Z,4.20
2018-02-05T15:29:19.470Z,4.20
2018-02-05T15:31:46.287Z,4.30
2018-02-05T15:34:13.122Z,4.30
2018-02-05T15:36:39.961Z,4.30
2018-02-05T15:39:07.506Z,4.40
2018-02-05T15:41:35.198Z,4.50
2018-02-05T15:44:02.822Z,4.50
2018-02-05T15:46:30.386Z,4.40
2018-02-05T15:48:57.232Z,4.30
2018-02-05T15:51:24.790Z,4.30
2018-02-05T15:53:52.498Z,4.20
2018-02-05T15:56:19.293Z,4.20
2018-02-05T15:58:46.852Z,4.10
2018-02-05T16:01:13.699Z,4.10
2018-02-05T16:03:40.553Z,4.10
2018-02-05T16:06:07.350Z,4.20
2018-02-05T16:08:34.238Z,4.10
2018-02-05T16:11:01.775Z,4.20
2018-02-05T16:13:29.349Z,4.20
2018-02-05T16:15:56.914Z,4.10
2018-02-05T16:18:24.477Z,4.10
2018-02-05T16:20:51.335Z,4.10
2018-02-05T16:23:18.137Z,4.10
2018-02-05T16:25:45.726Z,4.10
2018-02-05T16:28:12.558Z,4.10
2018-02-05T16:30:39.418Z,4.00
2018-02-05T16:33:06.237Z,4.00
2018-02-05T16:35:33.090Z,4.00
2018-02-05T16:37:59.938Z,3.80
2018-02-05T16:40:26.785Z,3.80
2018-02-05T16:42:53.646Z,3.90
2018-02-05T16:45:20.501Z,4.00
2018-02-05T16:47:47.341Z,4.00
2018-02-05T16:50:14.162Z,4.00
2018-02-05T16:52:41.033Z,3.90
2018-02-05T16:55:07.910Z,4.00
2018-02-05T16:57:34.789Z,3.90
2018-02-05T17:00:01.674Z,3.90
2018-02-05T17:02:28.494Z,3.90
2018-02-05T17:04:55.333Z,3.90
2018-02-05T17:07:22.149Z,4.00
2018-02-05T17:09:48.976Z,4.00
2018-02-05T17:12:16.548Z,4.00
2018-02-05T17:14:43.394Z,3.90
2018-02-05T17:17:10.226Z,3.90
2018-02-05T17:19:37.042Z,3.90
2018-02-05T17:22:03.955Z,4.00
2018-02-05T17:24:30.758Z,3.90
2018-02-05T17:26:57.570Z,3.90
2018-02-05T17:29:24.435Z,3.90
2018-02-05T17:31:51.253Z,3.90
2018-02-05T17:34:18.074Z,4.00
2018-02-05T17:36:44.902Z,4.00
2018-02-05T17:39:11.755Z,3.90
2018-02-05T17:41:38.628Z,3.90
2018-02-05T17:44:05.425Z,3.90
2018-02-05T17:46:32.282Z,3.90
2018-02-05T17:48:59.101Z,3.90
2018-02-05T17:51:25.929Z,3.80
2018-02-05T17:53:52.761Z,3.90
2018-02-05T17:56:19.590Z,3.80
2018-02-05T17:58:47.146Z,3.90
2018-02-05T18:01:14.765Z,3.80
2018-02-05T18:03:41.582Z,3.80
2018-02-05T18:06:08.410Z,3.70
2018-02-05T18:08:35.250Z,3.80
2018-02-05T18:11:02.841Z,3.90
2018-02-05T18:13:29.654Z,3.90
2018-02-05T18:15:56.501Z,3.80
2018-02-05T18:18:23.354Z,3.80
2018-02-05T18:20:50.219Z,3.80
2018-02-05T18:23:17.054Z,3.70
2018-02-05T18:25:43.865Z,3.80
2018-02-05T18:28:10.714Z,3.80
2018-02-05T18:30:37.526Z,3.80
2018-02-05T18:33:04.358Z,3.70
2018-02-05T18:35:31.225Z,3.70
2018-02-05T18:37:58.833Z,3.80
2018-02-05T18:40:25.683Z,3.80
2018-02-05T18:42:52.724Z,3.90
2018-02-05T18:45:19.650Z,3.80
2018-02-05T18:47:46.486Z,3.80
2018-02-05T18:50:13.491Z,3.70
2018-02-05T18:52:40.345Z,3.70
2018-02-05T18:55:07.914Z,3.70
2018-02-05T18:57:34.810Z,3.70
2018-02-05T19:00:13.796Z,3.70
2018-02-05T19:02:40.655Z,3.70
2018-02-05T19:05:07.482Z,3.70
2018-02-05T19:07:34.325Z,3.80
2018-02-05T19:10:01.523Z,3.80
2018-02-05T19:12:28.389Z,3.80
2018-02-05T19:14:55.977Z,3.70
2018-02-05T19:17:23.555Z,3.70
2018-02-05T19:19:50.442Z,3.70
2018-02-05T19:22:17.258Z,3.70
2018-02-05T19:24:44.074Z,3.50
2018-02-05T19:27:10.929Z,3.50
2018-02-05T19:29:37.754Z,3.50
2018-02-05T19:32:05.090Z,3.50
2018-02-05T19:34:31.974Z,3.50
2018-02-05T19:36:58.807Z,3.50
2018-02-05T19:39:25.684Z,3.60
2018-02-05T19:41:52.518Z,3.60
2018-02-05T19:44:20.450Z,3.60
2018-02-05T19:46:47.295Z,3.60
2018-02-05T19:49:14.645Z,3.70
2018-02-05T19:51:41.587Z,3.70
2018-02-05T19:54:08.461Z,3.70
2018-02-05T19:56:35.302Z,3.70
2018-02-05T19:59:02.160Z,3.70
2018-02-05T20:01:29.011Z,3.70
2018-02-05T20:03:55.886Z,3.60
2018-02-05T20:06:23.583Z,3.50
2018-02-05T20:08:50.439Z,3.40
2018-02-05T20:11:17.302Z,3.40
2018-02-05T20:13:44.126Z,3.50
2018-02-05T20:16:10.973Z,3.50
2018-02-05T20:18:37.801Z,3.50
2018-02-05T20:21:04.646Z,3.50
2018-02-05T20:23:31.533Z,3.40
2018-02-05T20:25:58.726Z,3.40
2018-02-05T20:28:25.554Z,3.40
2018-02-05T20:30:52.458Z,3.40
2018-02-05T20:33:19.286Z,3.40
2018-02-05T20:35:48.070Z,3.40
2018-02-05T20:38:14.923Z,3.40
2018-02-05T20:40:41.766Z,3.30
2018-02-05T20:43:09.995Z,3.30
2018-02-05T20:45:36.852Z,3.30
2018-02-05T20:48:04.074Z,3.40
2018-02-05T20:50:31.198Z,3.40
2018-02-05T20:52:58.086Z,3.30
2018-02-05T20:55:25.327Z,3.30
2018-02-05T20:57:52.217Z,3.20
2018-02-05T21:00:19.830Z,3.20
2018-02-05T21:02:46.694Z,3.20
2018-02-05T21:05:13.529Z,3.20
2018-02-05T21:07:40.365Z,3.30
2018-02-05T21:10:07.482Z,3.10
2018-02-05T21:12:34.324Z,3.00
2018-02-05T21:15:02.463Z,3.10
2018-02-05T21:17:29.703Z,3.00
2018-02-05T21:19:56.558Z,3.20
2018-02-05T21:22:23.427Z,3.20
2018-02-05T21:24:50.245Z,3.30
2018-02-05T21:27:17.085Z,3.30
2018-02-05T21:29:43.962Z,3.30
2018-02-05T21:32:10.766Z,3.30
2018-02-05T21:34:37.609Z,3.40
2018-02-05T21:37:04.430Z,3.40
2018-02-05T21:39:31.289Z,3.30
2018-02-05T21:41:58.095Z,3.30
2018-02-05T21:44:25.708Z,3.20
2018-02-05T21:46:52.529Z,3.20
2018-02-05T21:49:19.350Z,3.20
2018-02-05T21:51:46.207Z,3.20
2018-02-05T21:54:13.046Z,3.20
2018-02-05T21:56:39.902Z,3.20
2018-02-05T21:59:06.750Z,3.20
2018-02-05T22:01:33.590Z,3.10
2018-02-05T22:04:00.470Z,3.00
2018-02-05T22:06:27.295Z,2.90
2018-02-05T22:08:54.149Z,2.90
2018-02-05T22:11:20.986Z,2.90
2018-02-05T22:13:47.857Z,2.90
2018-02-05T22:16:14.690Z,2.90
2018-02-05T22:18:41.550Z,2.90
2018-02-05T22:21:09.134Z,2.90
2018-02-05T22:23:35.956Z,2.90
2018-02-05T22:26:03.517Z,3.00
2018-02-05T22:28:31.127Z,3.00
2018-02-05T22:30:58.692Z,2.90
2018-02-05T22:33:25.548Z,2.90
2018-02-05T22:35:52.385Z,2.90
2018-02-05T22:38:19.277Z,3.00
2018-02-05T22:40:46.094Z,3.00
2018-02-05T22:43:12.925Z,2.90
2018-02-05T22:45:39.778Z,2.80
2018-02-05T22:48:06.638Z,2.70
2018-02-05T22:50:33.450Z,2.70
2018-02-05T22:53:00.286Z,2.80
2018-02-05T22:55:27.119Z,2.70
2018-02-05T22:57:53.991Z,2.70
2018-02-05T23:00:20.808Z,2.80
2018-02-05T23:02:47.630Z,2.80
2018-02-05T23:05:14.471Z,2.80
2018-02-05T23:07:41.282Z,2.80
2018-02-05T23:10:08.878Z,2.80
2018-02-05T23:12:35.721Z,2.70
2018-02-05T23:15:02.557Z,2.70
2018-02-05T23:17:29.371Z,2.70
2018-02-05T23:19:56.250Z,2.70
2018-02-05T23:22:23.077Z,2.80
2018-02-05T23:27:23.441Z,2.80
2018-02-05T23:29:51.025Z,2.70
2018-02-05T23:32:17.850Z,2.70
2018-02-05T23:34:44.650Z,2.70
2018-02-05T23:37:11.481Z,2.70
2018-02-05T23:39:39.037Z,2.80
2018-02-05T23:42:05.903Z,2.80
2018-02-05T23:44:32.737Z,2.70
2018-02-05T23:47:00.298Z,2.50
2018-02-05T23:49:27.110Z,2.50
2018-02-05T23:51:53.922Z,2.60
2018-02-05T23:54:20.795Z,2.70
2018-02-05T23:56:47.610Z,2.70
2018-02-05T23:59:14.454Z,2.70
